Time;durP1;ratioP1;P1;durP2;ratioP2;P2;SDS_P1;SDS_P2;PMS_P1;PMS_P2;Temp;Humidity;BMP_temperature;BMP_pressure;BME280_temperature;BME280_humidity;BME280_pressure;Samples;Min_cycle;Max_cycle;Signal;HPM_P1;HPM_P2
2021/07/30 00:00:04;;;;;;;2.90;1.53;;;17.00;99.90;;;;;;6276964;22;20181;-78
2021/07/30 00:02:31;;;;;;;2.23;1.30;;;16.90;99.90;;;;;;6276098;22;20669;-76
2021/07/30 00:04:59;;;;;;;3.67;1.27;;;16.90;99.90;;;;;;6276362;22;20178;-76
2021/07/30 00:07:26;;;;;;;4.53;1.30;;;17.00;99.90;;;;;;6276285;22;20189;-77
2021/07/30 00:09:53;;;;;;;1.70;1.20;;;17.00;99.90;;;;;;6276513;22;20183;-77
2021/07/30 00:12:20;;;;;;;4.07;1.50;;;17.00;99.90;;;;;;6276261;22;20178;-77
2021/07/30 00:14:47;;;;;;;2.60;1.50;;;16.90;99.90;;;;;;6276590;22;20175;-76
2021/07/30 00:17:14;;;;;;;4.50;1.20;;;16.80;99.90;;;;;;6276653;22;20637;-77
2021/07/30 00:19:41;;;;;;;4.23;1.33;;;16.80;99.90;;;;;;6276146;22;20179;-77
2021/07/30 00:22:09;;;;;;;8.37;1.70;;;16.70;99.90;;;;;;6276116;22;20203;-77
2021/07/30 00:24:35;;;;;;;3.30;1.50;;;16.60;99.90;;;;;;6275884;22;20189;-77
2021/07/30 00:27:02;;;;;;;4.47;1.30;;;16.60;99.90;;;;;;6276784;22;20179;-77
2021/07/30 00:29:29;;;;;;;3.20;1.40;;;16.60;99.90;;;;;;6276352;22;20194;-77
2021/07/30 00:31:56;;;;;;;4.33;1.30;;;16.60;99.90;;;;;;6276482;22;20181;-77
2021/07/30 00:34:23;;;;;;;3.40;1.13;;;16.60;99.90;;;;;;6276303;22;20622;-77
2021/07/30 00:36:49;;;;;;;3.07;1.50;;;16.60;99.90;;;;;;6276280;22;20494;-76
2021/07/30 00:39:17;;;;;;;3.10;1.23;;;16.60;99.90;;;;;;6276365;22;20198;-77
2021/07/30 00:41:44;;;;;;;2.10;1.33;;;16.50;99.90;;;;;;6276045;22;20175;-77
2021/07/30 00:44:11;;;;;;;2.07;1.37;;;16.60;99.90;;;;;;6276652;22;20189;-77
2021/07/30 00:46:38;;;;;;;3.10;1.67;;;16.50;99.90;;;;;;6276237;22;20197;-77
2021/07/30 00:49:05;;;;;;;2.67;1.00;;;16.40;99.90;;;;;;6275836;22;20195;-77
2021/07/30 00:51:34;;;;;;;1.77;1.20;;;16.30;99.90;;;;;;6276261;22;20196;-77
2021/07/30 00:54:01;;;;;;;5.10;1.50;;;16.20;99.90;;;;;;6275760;22;20630;-77
2021/07/30 00:56:30;;;;;;;1.90;1.20;;;16.20;99.90;;;;;;6276352;22;20175;-77
2021/07/30 00:58:57;;;;;;;4.10;1.70;;;16.00;99.90;;;;;;6276206;22;20201;-77
2021/07/30 01:01:24;;;;;;;4.70;1.13;;;16.00;99.90;;;;;;6275820;22;20186;-77
2021/07/30 01:03:51;;;;;;;4.70;1.53;;;16.00;99.90;;;;;;6276175;22;20213;-77
2021/07/30 01:06:18;;;;;;;5.77;1.27;;;16.00;99.90;;;;;;6276073;22;20260;-77
2021/07/30 01:08:44;;;;;;;3.60;1.60;;;15.90;99.90;;;;;;6275486;22;20206;-76
2021/07/30 01:11:11;;;;;;;2.50;1.13;;;15.90;99.90;;;;;;6276586;22;20175;-77
2021/07/30 01:13:39;;;;;;;3.80;1.43;;;15.90;99.90;;;;;;6275765;22;20507;-77
2021/07/30 01:16:06;;;;;;;2.93;1.27;;;15.90;99.90;;;;;;6275881;22;20175;-76
2021/07/30 01:18:33;;;;;;;2.67;1.50;;;15.80;99.90;;;;;;6275801;22;20195;-77
2021/07/30 01:21:08;;;;;;;2.37;1.40;;;15.80;99.90;;;;;;6275857;22;20182;-77
2021/07/30 01:23:37;;;;;;;2.20;1.40;;;15.70;99.90;;;;;;6275583;22;20257;-76
2021/07/30 01:26:04;;;;;;;2.40;1.27;;;15.80;99.90;;;;;;6275660;22;20179;-77
2021/07/30 01:28:31;;;;;;;2.73;1.10;;;15.80;99.90;;;;;;6275401;22;20198;-76
2021/07/30 01:30:58;;;;;;;7.20;2.33;;;15.80;99.90;;;;;;6275721;22;20182;-76
2021/07/30 01:33:25;;;;;;;1.60;1.20;;;15.70;99.90;;;;;;6276726;22;20656;-77
2021/07/30 01:35:52;;;;;;;3.00;1.27;;;15.70;99.90;;;;;;6277394;22;20188;-76
2021/07/30 01:38:18;;;;;;;2.13;1.10;;;15.70;99.90;;;;;;6277118;22;20195;-77
2021/07/30 01:40:46;;;;;;;4.27;1.50;;;15.60;99.90;;;;;;6277468;22;20175;-77
2021/07/30 01:43:13;;;;;;;4.30;1.50;;;15.60;99.90;;;;;;6277011;22;20202;-75
2021/07/30 01:45:40;;;;;;;4.13;1.50;;;15.50;99.90;;;;;;6277682;22;20182;-77
2021/07/30 01:48:07;;;;;;;4.43;1.33;;;15.60;99.90;;;;;;6277121;22;20195;-77
2021/07/30 01:50:33;;;;;;;4.07;1.57;;;15.60;99.90;;;;;;6277208;22;20175;-77
2021/07/30 01:53:00;;;;;;;2.23;1.10;;;15.70;99.90;;;;;;6277322;22;20189;-77
2021/07/30 01:55:27;;;;;;;3.60;1.40;;;15.80;99.90;;;;;;6277919;22;20175;-76
2021/07/30 01:57:55;;;;;;;6.27;1.90;;;15.80;99.90;;;;;;6277856;22;20201;-77
2021/07/30 02:00:22;;;;;;;2.93;1.37;;;15.80;99.90;;;;;;6277521;22;20175;-77
2021/07/30 02:02:48;;;;;;;7.13;1.67;;;15.70;99.90;;;;;;6277107;22;20205;-77
2021/07/30 02:05:15;;;;;;;3.83;1.67;;;15.70;99.90;;;;;;6277187;22;20234;-77
2021/07/30 02:07:42;;;;;;;3.00;1.40;;;15.60;99.90;;;;;;6277142;22;20194;-76
2021/07/30 02:10:09;;;;;;;3.27;1.37;;;15.60;99.90;;;;;;6277461;22;20181;-77
2021/07/30 02:14:15;;;;;;;3.20;1.93;;;15.60;99.90;;;;;;6277628;22;20186;-77
2021/07/30 02:15:23;;;;;;;5.37;1.60;;;15.50;99.90;;;;;;6276837;22;20233;-77
2021/07/30 02:17:50;;;;;;;2.77;1.70;;;15.40;99.90;;;;;;6276901;22;20198;-77
2021/07/30 02:20:17;;;;;;;2.60;1.20;;;15.40;99.90;;;;;;6276770;22;20190;-77
2021/07/30 02:22:44;;;;;;;7.47;1.90;;;15.40;99.90;;;;;;6277196;22;20203;-77
2021/07/30 02:25:11;;;;;;;3.90;1.37;;;15.50;99.90;;;;;;6277246;22;20498;-77
2021/07/30 02:27:38;;;;;;;4.27;1.40;;;15.40;99.90;;;;;;6277474;22;20203;-77
2021/07/30 02:30:06;;;;;;;5.73;1.63;;;15.30;99.90;;;;;;6276964;22;20185;-77
2021/07/30 02:32:34;;;;;;;3.00;1.63;;;15.30;99.90;;;;;;6276596;22;20681;-77
2021/07/30 02:35:00;;;;;;;1.90;1.27;;;15.20;99.90;;;;;;6277059;22;20197;-77
2021/07/30 02:37:27;;;;;;;3.43;1.40;;;15.10;99.90;;;;;;6276355;22;20480;-76
2021/07/30 02:39:54;;;;;;;5.97;1.67;;;15.20;99.90;;;;;;6275997;22;20190;-77
2021/07/30 02:42:21;;;;;;;4.97;1.50;;;15.20;99.90;;;;;;6275771;22;20185;-77
2021/07/30 02:44:47;;;;;;;3.50;1.40;;;15.20;99.90;;;;;;6276431;22;20189;-77
2021/07/30 02:47:14;;;;;;;3.70;1.30;;;15.20;99.90;;;;;;6276930;22;20715;-77
2021/07/30 02:49:42;;;;;;;2.77;1.30;;;15.10;99.90;;;;;;6277140;22;20185;-77
2021/07/30 02:52:09;;;;;;;4.43;1.60;;;15.20;99.90;;;;;;6265714;22;20212;-75
2021/07/30 02:54:36;;;;;;;2.80;1.43;;;15.10;99.90;;;;;;6246616;23;20179;-77
2021/07/30 02:57:03;;;;;;;1.93;1.20;;;15.00;99.90;;;;;;6246334;23;20176;-79
2021/07/30 02:59:33;;;;;;;4.83;1.67;;;15.00;99.90;;;;;;6246072;23;20196;-78
2021/07/30 03:02:00;;;;;;;4.20;1.50;;;15.00;99.90;;;;;;6246072;23;20507;-79
2021/07/30 03:04:27;;;;;;;4.50;2.33;;;15.00;99.90;;;;;;6246747;23;20207;-78
2021/07/30 03:06:55;;;;;;;3.30;1.40;;;15.20;99.90;;;;;;6245386;23;20226;-78
2021/07/30 03:09:21;;;;;;;5.40;1.70;;;15.20;99.90;;;;;;6245445;23;20202;-79
2021/07/30 03:11:48;;;;;;;4.67;1.43;;;15.20;99.90;;;;;;6245954;23;20182;-79
2021/07/30 03:14:15;;;;;;;1.97;1.20;;;15.20;99.90;;;;;;6245995;23;20185;-78
2021/07/30 03:16:42;;;;;;;5.50;1.70;;;15.30;99.90;;;;;;6246403;23;20182;-80
2021/07/30 03:19:08;;;;;;;4.47;1.30;;;15.30;99.90;;;;;;6245862;23;20196;-79
2021/07/30 03:21:36;;;;;;;4.60;1.80;;;15.30;99.90;;;;;;6246450;23;20187;-78
2021/07/30 03:24:05;;;;;;;7.47;2.40;;;15.20;99.90;;;;;;6245985;23;20290;-78
2021/07/30 03:26:33;;;;;;;3.00;1.50;;;15.10;99.90;;;;;;6245997;23;20182;-78
2021/07/30 03:29:00;;;;;;;3.30;1.57;;;15.20;99.90;;;;;;6245719;23;20195;-77
2021/07/30 03:31:27;;;;;;;3.20;1.40;;;15.20;99.90;;;;;;6245726;23;20175;-77
2021/07/30 03:33:54;;;;;;;3.40;1.57;;;15.20;99.90;;;;;;6245278;23;20176;-77
2021/07/30 03:36:21;;;;;;;3.83;1.63;;;15.10;99.90;;;;;;6245584;23;20175;-79
2021/07/30 03:38:47;;;;;;;2.50;1.50;;;15.20;99.90;;;;;;6245599;23;20205;-77
2021/07/30 03:41:16;;;;;;;2.20;1.30;;;15.30;99.90;;;;;;6245678;23;20176;-79
2021/07/30 03:43:42;;;;;;;4.80;1.90;;;15.30;99.90;;;;;;6245224;23;20508;-78
2021/07/30 03:46:09;;;;;;;2.73;1.33;;;15.10;99.90;;;;;;6245525;23;20484;-78
2021/07/30 03:48:36;;;;;;;5.27;1.53;;;15.10;99.90;;;;;;6245172;23;20512;-81
2021/07/30 03:51:03;;;;;;;4.43;1.93;;;15.10;99.90;;;;;;6246376;23;20176;-79
2021/07/30 03:53:30;;;;;;;6.10;1.70;;;15.10;99.90;;;;;;6245732;23;20187;-81
2021/07/30 03:55:57;;;;;;;3.37;1.37;;;15.20;99.90;;;;;;6245552;23;20186;-78
2021/07/30 03:58:25;;;;;;;4.23;1.90;;;15.00;99.90;;;;;;6245185;23;20678;-77
2021/07/30 04:00:51;;;;;;;3.20;1.60;;;14.90;99.90;;;;;;6245986;23;20182;-81
2021/07/30 04:03:18;;;;;;;2.23;1.60;;;14.90;99.90;;;;;;6246093;23;20203;-78
2021/07/30 04:05:45;;;;;;;3.27;1.80;;;14.90;99.90;;;;;;6246274;23;20176;-77
2021/07/30 04:08:12;;;;;;;4.03;2.27;;;15.00;99.90;;;;;;6245312;23;20196;-80
2021/07/30 04:10:38;;;;;;;3.57;1.60;;;14.90;99.90;;;;;;6245163;23;20636;-77
2021/07/30 04:13:05;;;;;;;4.30;1.60;;;14.90;99.90;;;;;;6245159;23;20186;-81
2021/07/30 04:15:33;;;;;;;2.27;1.50;;;14.80;99.90;;;;;;6245844;23;20180;-77
2021/07/30 04:18:00;;;;;;;6.47;1.90;;;14.80;99.90;;;;;;6245501;23;20199;-77
2021/07/30 04:20:27;;;;;;;3.97;1.97;;;14.90;99.90;;;;;;6245595;23;20175;-80
2021/07/30 04:22:54;;;;;;;3.07;1.67;;;14.90;99.90;;;;;;6245931;23;20175;-81
2021/07/30 04:25:20;;;;;;;5.40;1.80;;;15.00;99.90;;;;;;6245704;23;20182;-81
2021/07/30 04:27:47;;;;;;;3.13;1.63;;;15.20;99.90;;;;;;6245580;23;20196;-78
2021/07/30 04:30:14;;;;;;;4.73;1.90;;;15.20;99.90;;;;;;6244924;23;20175;-77
2021/07/30 04:32:42;;;;;;;6.57;1.90;;;15.30;99.90;;;;;;6245224;23;20175;-79
2021/07/30 04:35:09;;;;;;;3.33;1.27;;;15.30;99.90;;;;;;6245919;23;20186;-77
2021/07/30 04:37:36;;;;;;;2.00;1.60;;;15.40;99.90;;;;;;6245654;23;20200;-78
2021/07/30 04:40:04;;;;;;;2.30;1.30;;;15.50;99.90;;;;;;6245626;23;20176;-77
2021/07/30 04:42:30;;;;;;;2.57;1.57;;;15.60;99.90;;;;;;6245012;23;20179;-77
2021/07/30 04:44:57;;;;;;;3.83;1.60;;;15.70;99.90;;;;;;6245658;23;20213;-78
2021/07/30 04:47:24;;;;;;;2.43;1.50;;;15.70;99.90;;;;;;6245103;23;20182;-76
2021/07/30 04:49:52;;;;;;;5.60;1.90;;;15.70;99.90;;;;;;6244860;23;20179;-79
2021/07/30 04:52:19;;;;;;;2.63;1.40;;;15.80;99.90;;;;;;6245855;23;20205;-77
2021/07/30 04:54:46;;;;;;;1.97;1.10;;;15.80;99.90;;;;;;6245754;23;20635;-78
2021/07/30 04:57:12;;;;;;;3.03;1.47;;;16.00;99.90;;;;;;6245561;23;20180;-78
2021/07/30 04:59:39;;;;;;;3.83;1.60;;;16.40;99.90;;;;;;6245654;23;20187;-77
2021/07/30 05:02:09;;;;;;;4.30;1.20;;;16.70;99.90;;;;;;6246153;23;20182;-80
2021/07/30 05:04:36;;;;;;;4.17;1.63;;;16.80;99.90;;;;;;6246045;23;20218;-77
2021/07/30 05:07:04;;;;;;;2.17;1.30;;;17.00;99.90;;;;;;6247019;23;20179;-79
2021/07/30 05:09:31;;;;;;;4.97;1.30;;;17.20;99.90;;;;;;6247791;23;20202;-77
2021/07/30 05:11:58;;;;;;;3.10;1.20;;;17.60;99.90;;;;;;6247716;23;20175;-78
2021/07/30 05:14:25;;;;;;;2.40;0.90;;;17.90;99.90;;;;;;6247821;23;20196;-77
2021/07/30 05:16:52;;;;;;;1.40;0.90;;;18.30;99.90;;;;;;6247664;23;20182;-77
2021/07/30 05:19:19;;;;;;;2.53;0.90;;;18.70;99.90;;;;;;6247431;23;20202;-78
2021/07/30 05:21:46;;;;;;;3.47;1.20;;;19.00;99.90;;;;;;6247796;23;20262;-77
2021/07/30 05:24:14;;;;;;;2.28;1.00;;;19.60;99.90;;;;;;6246990;23;20238;-77
2021/07/30 05:26:41;;;;;;;2.05;1.08;;;19.90;99.90;;;;;;6247463;23;20198;-78
2021/07/30 05:29:08;;;;;;;2.70;1.05;;;20.00;99.90;;;;;;6246138;23;20196;-79
2021/07/30 05:31:35;;;;;;;1.77;1.20;;;20.40;99.90;;;;;;6247348;23;20183;-77
2021/07/30 05:34:02;;;;;;;2.05;1.13;;;20.60;99.90;;;;;;6247301;23;20254;-78
2021/07/30 05:36:29;;;;;;;2.45;1.00;;;20.90;99.90;;;;;;6247212;23;20180;-78
2021/07/30 05:38:55;;;;;;;2.15;1.13;;;20.70;99.90;;;;;;6246850;23;20511;-80
2021/07/30 05:41:23;;;;;;;2.00;1.17;;;20.50;99.90;;;;;;6247221;23;20180;-77
2021/07/30 05:43:50;;;;;;;1.80;1.05;;;20.40;99.90;;;;;;6246940;23;20226;-78
2021/07/30 05:46:19;;;;;;;1.40;1.10;;;20.40;99.90;;;;;;6246959;23;20226;-78
2021/07/30 05:48:46;;;;;;;2.00;0.88;;;21.00;99.90;;;;;;6247057;23;20234;-79
2021/07/30 05:51:14;;;;;;;2.65;1.00;;;22.00;99.90;;;;;;6246412;23;20176;-74
2021/07/30 05:53:41;;;;;;;1.15;0.80;;;22.70;99.90;;;;;;6246566;23;20489;-75
2021/07/30 05:56:08;;;;;;;1.63;0.93;;;22.70;99.90;;;;;;6247472;23;20534;-77
2021/07/30 05:58:36;;;;;;;3.58;0.90;;;22.80;99.90;;;;;;6246928;23;20278;-76
2021/07/30 06:01:03;;;;;;;2.05;1.02;;;23.20;99.90;;;;;;6247180;23;20176;-75
2021/07/30 06:03:30;;;;;;;1.98;0.98;;;23.00;99.90;;;;;;6247287;23;20176;-76
2021/07/30 06:05:57;;;;;;;1.58;0.95;;;23.00;99.90;;;;;;6247561;23;20172;-75
2021/07/30 06:08:24;;;;;;;1.85;0.90;;;22.90;99.90;;;;;;6246246;23;20202;-75
2021/07/30 06:10:50;;;;;;;1.20;0.90;;;22.30;99.90;;;;;;6247122;23;20183;-76
2021/07/30 06:13:17;;;;;;;1.52;0.88;;;22.00;99.90;;;;;;6247339;23;20182;-75
2021/07/30 06:15:45;;;;;;;0.90;0.60;;;22.00;99.90;;;;;;6247307;23;20176;-76
2021/07/30 06:18:12;;;;;;;1.20;0.70;;;22.00;99.90;;;;;;6246449;23;20196;-77
2021/07/30 06:20:39;;;;;;;1.95;1.05;;;22.30;99.90;;;;;;6247293;23;20179;-75
2021/07/30 06:23:06;;;;;;;2.00;1.17;;;22.40;99.90;;;;;;6247303;23;20176;-76
2021/07/30 06:25:32;;;;;;;2.03;1.00;;;22.40;99.90;;;;;;6246741;23;20207;-76
2021/07/30 06:28:00;;;;;;;2.35;1.15;;;22.20;99.90;;;;;;6246249;23;20278;-76
2021/07/30 06:30:27;;;;;;;1.25;0.80;;;21.80;99.90;;;;;;6246622;23;20184;-76
2021/07/30 06:32:56;;;;;;;1.90;0.70;;;21.60;99.90;;;;;;6246820;23;20182;-76
2021/07/30 06:35:25;;;;;;;2.83;0.80;;;21.40;99.90;;;;;;6247197;23;20180;-77
2021/07/30 06:37:51;;;;;;;1.83;0.90;;;20.90;99.90;;;;;;6246557;23;20195;-77
2021/07/30 06:40:18;;;;;;;2.17;0.93;;;20.60;99.90;;;;;;6246484;23;20175;-77
2021/07/30 06:42:45;;;;;;;5.30;1.20;;;20.50;99.90;;;;;;6246977;23;20630;-77
2021/07/30 06:45:12;;;;;;;1.10;0.80;;;20.20;99.90;;;;;;6246626;23;20693;-77
2021/07/30 06:47:39;;;;;;;1.52;1.00;;;20.30;99.90;;;;;;6246397;23;20511;-77
2021/07/30 06:50:08;;;;;;;2.00;1.10;;;20.80;99.90;;;;;;6247167;23;20258;-78
2021/07/30 06:52:35;;;;;;;6.13;1.10;;;21.90;99.90;;;;;;6246454;23;20183;-78
2021/07/30 06:55:02;;;;;;;1.83;0.93;;;22.70;99.90;;;;;;6246784;23;20180;-78
2021/07/30 06:57:28;;;;;;;1.27;0.90;;;23.00;99.90;;;;;;6246415;23;20176;-77
2021/07/30 06:59:55;;;;;;;1.48;0.80;;;23.00;99.90;;;;;;6247111;23;20176;-77
2021/07/30 07:02:22;;;;;;;1.92;0.88;;;22.80;99.90;;;;;;6246503;23;20175;-78
2021/07/30 07:04:49;;;;;;;1.50;1.00;;;22.60;99.90;;;;;;6246119;23;20210;-77
2021/07/30 07:07:17;;;;;;;1.90;0.80;;;22.60;99.90;;;;;;6246610;23;20176;-78
2021/07/30 07:09:44;;;;;;;1.23;0.70;;;23.30;99.90;;;;;;6246866;23;20235;-77
2021/07/30 07:12:10;;;;;;;1.70;0.80;;;23.80;99.90;;;;;;6247056;23;20190;-77
2021/07/30 07:14:37;;;;;;;1.63;0.88;;;24.00;99.90;;;;;;6246761;23;20180;-77
2021/07/30 07:17:04;;;;;;;1.02;0.70;;;23.90;99.90;;;;;;6245992;23;20622;-77
2021/07/30 07:19:31;;;;;;;1.63;0.82;;;23.90;99.90;;;;;;6246294;23;20196;-78
2021/07/30 07:21:58;;;;;;;2.38;1.05;;;24.20;99.90;;;;;;6245642;23;20182;-77
2021/07/30 07:24:26;;;;;;;1.25;0.93;;;24.30;99.90;;;;;;6246267;23;20203;-77
2021/07/30 07:26:52;;;;;;;2.50;0.90;;;24.80;99.90;;;;;;6246372;23;20182;-77
2021/07/30 07:29:19;;;;;;;1.45;0.80;;;25.20;99.90;;;;;;6245978;23;20667;-77
2021/07/30 07:31:46;;;;;;;1.52;0.98;;;24.80;99.90;;;;;;6246265;23;20182;-78
2021/07/30 07:34:13;;;;;;;1.33;0.90;;;24.40;99.90;;;;;;6246344;23;20202;-77
2021/07/30 07:36:40;;;;;;;1.60;1.00;;;23.80;99.90;;;;;;6246524;23;20201;-77
2021/07/30 07:39:07;;;;;;;2.80;1.10;;;24.30;99.90;;;;;;6245851;23;20201;-77
2021/07/30 07:41:35;;;;;;;1.27;0.98;;;24.70;99.90;;;;;;6245812;23;20182;-77
2021/07/30 07:44:02;;;;;;;1.00;0.90;;;25.00;99.90;;;;;;6246173;23;20234;-77
2021/07/30 07:46:29;;;;;;;1.60;0.77;;;25.30;99.90;;;;;;6246534;23;20175;-77
2021/07/30 07:48:56;;;;;;;2.33;1.02;;;25.50;99.90;;;;;;6245879;23;20671;-77
2021/07/30 07:51:22;;;;;;;2.63;1.05;;;25.70;99.90;;;;;;6246034;23;20180;-77
2021/07/30 07:53:49;;;;;;;1.90;0.98;;;26.10;99.90;;;;;;6246370;23;20186;-77
2021/07/30 07:56:16;;;;;;;2.60;1.52;;;26.20;99.90;;;;;;6246025;23;20619;-78
2021/07/30 07:58:44;;;;;;;4.75;1.40;;;26.50;99.90;;;;;;6246359;23;20205;-77
2021/07/30 08:01:14;;;;;;;1.13;0.70;;;26.70;99.60;;;;;;6246351;23;20186;-77
2021/07/30 08:03:44;;;;;;;0.80;0.60;;;26.70;99.80;;;;;;6245771;23;20697;-78
2021/07/30 08:06:15;;;;;;;2.13;1.15;;;26.90;98.90;;;;;;6246653;23;20290;-77
2021/07/30 08:08:42;;;;;;;2.38;0.85;;;27.40;99.10;;;;;;6247100;23;20217;-78
2021/07/30 08:11:09;;;;;;;2.58;1.00;;;28.60;98.30;;;;;;6247290;23;20198;-78
2021/07/30 08:13:36;;;;;;;2.10;0.90;;;29.00;96.60;;;;;;6247467;23;20179;-78
2021/07/30 08:16:05;;;;;;;1.13;0.70;;;28.90;96.80;;;;;;6246319;23;20175;-78
2021/07/30 08:18:32;;;;;;;1.25;0.80;;;29.30;97.40;;;;;;6247520;23;20200;-78
2021/07/30 08:20:59;;;;;;;1.30;0.90;;;29.30;96.10;;;;;;6246849;23;20262;-78
2021/07/30 08:23:26;;;;;;;2.55;0.90;;;29.20;96.10;;;;;;6246170;23;20183;-78
2021/07/30 08:25:53;;;;;;;1.20;0.90;;;29.20;96.30;;;;;;6245133;23;20674;-78
2021/07/30 08:28:20;;;;;;;1.02;0.82;;;29.10;96.50;;;;;;6246017;23;20200;-77
2021/07/30 08:30:47;;;;;;;1.33;0.98;;;28.70;96.20;;;;;;6245203;23;20656;-79
2021/07/30 08:33:16;;;;;;;1.17;0.90;;;28.60;97.10;;;;;;6245918;23;20258;-77
2021/07/30 08:35:43;;;;;;;2.00;0.80;;;28.10;96.70;;;;;;6245763;23;20183;-77
2021/07/30 08:38:09;;;;;;;1.40;0.80;;;27.80;96.70;;;;;;6245123;23;20200;-78
2021/07/30 08:40:39;;;;;;;2.05;0.80;;;27.80;97.00;;;;;;6245670;23;20183;-77
2021/07/30 08:43:05;;;;;;;1.40;1.10;;;27.50;97.00;;;;;;6247662;23;20179;-78
2021/07/30 08:45:32;;;;;;;2.80;1.23;;;27.50;97.20;;;;;;6247716;23;20214;-77
2021/07/30 08:48:01;;;;;;;1.05;0.88;;;27.40;97.20;;;;;;6247933;23;20196;-77
2021/07/30 08:50:31;;;;;;;2.35;1.08;;;27.70;97.80;;;;;;6247581;23;20187;-77
2021/07/30 08:53:03;;;;;;;2.17;1.02;;;28.20;97.10;;;;;;6229726;22;20259;-85
2021/07/30 08:55:31;;;;;;;1.10;0.90;;;27.90;97.10;;;;;;6218003;23;20186;-84
2021/07/30 08:57:58;;;;;;;1.33;0.98;;;27.50;97.50;;;;;;6221548;23;20196;-84
2021/07/30 09:00:24;;;;;;;1.60;0.90;;;27.90;97.80;;;;;;6219883;23;20199;-84
2021/07/30 09:02:54;;;;;;;1.27;0.80;;;28.10;97.70;;;;;;6218705;23;20202;-84
2021/07/30 09:05:39;;;;;;;2.35;0.90;;;28.20;97.00;;;;;;6219922;23;20208;-83
2021/07/30 09:08:07;;;;;;;3.15;1.15;;;28.70;97.40;;;;;;6228404;23;20197;-83
2021/07/30 09:10:36;;;;;;;1.67;1.02;;;28.70;97.50;;;;;;6217647;23;20176;-81
2021/07/30 09:13:23;;;;;;;1.95;1.10;;;28.80;96.50;;;;;;6220772;23;20180;-83
2021/07/30 09:16:00;;;;;;;1.55;0.98;;;28.30;97.00;;;;;;6228606;23;20176;-84
2021/07/30 09:18:29;;;;;;;1.67;1.10;;;28.40;96.80;;;;;;6222972;23;20196;-81
2021/07/30 09:21:16;;;;;;;1.40;1.00;;;28.10;97.50;;;;;;6224080;23;20176;-84
2021/07/30 09:23:46;;;;;;;2.10;1.20;;;27.40;97.70;;;;;;6217460;23;20187;-79
2021/07/30 09:26:28;;;;;;;1.30;0.88;;;27.10;98.00;;;;;;6217278;23;20208;-84
2021/07/30 09:28:55;;;;;;;1.55;1.00;;;26.70;98.80;;;;;;6216976;23;20197;-78
2021/07/30 09:31:27;;;;;;;1.10;1.00;;;26.60;98.90;;;;;;6216893;23;20508;-83
2021/07/30 09:33:59;;;;;;;2.10;1.15;;;26.80;99.20;;;;;;6217411;23;20176;-77
2021/07/30 09:36:27;;;;;;;1.70;1.23;;;27.00;98.60;;;;;;6217606;23;20564;-82
2021/07/30 09:39:00;;;;;;;1.65;1.02;;;27.30;98.40;;;;;;6216522;23;20258;-82
2021/07/30 09:41:27;;;;;;;2.35;1.27;;;27.70;98.00;;;;;;6217130;23;20199;-85
2021/07/30 09:44:05;;;;;;;1.38;0.90;;;27.60;97.30;;;;;;6217433;23;20176;-86
2021/07/30 09:46:33;;;;;;;2.88;1.00;;;27.50;97.50;;;;;;6216890;23;20208;-81
2021/07/30 09:49:00;;;;;;;1.38;0.90;;;27.50;98.80;;;;;;6217535;23;20203;-84
2021/07/30 09:51:28;;;;;;;1.80;0.90;;;27.60;98.20;;;;;;6216960;23;20552;-82
2021/07/30 09:53:55;;;;;;;1.98;0.90;;;27.50;97.70;;;;;;6216163;23;20183;-81
2021/07/30 09:56:23;;;;;;;1.55;1.20;;;27.50;98.10;;;;;;6217190;23;20207;-84
2021/07/30 09:58:55;;;;;;;1.25;0.90;;;26.80;97.70;;;;;;6218483;23;20262;-81
2021/07/30 10:01:23;;;;;;;1.95;1.00;;;26.10;98.60;;;;;;6218139;23;20185;-84
2021/07/30 10:03:53;;;;;;;1.77;1.20;;;26.00;99.00;;;;;;6218783;23;20184;-82
2021/07/30 10:06:20;;;;;;;1.23;0.90;;;25.60;99.40;;;;;;6216757;23;20208;-82
2021/07/30 10:08:48;;;;;;;1.30;1.00;;;25.60;99.90;;;;;;6216436;23;20196;-82
2021/07/30 10:11:15;;;;;;;1.23;0.98;;;25.40;99.40;;;;;;6216691;23;20180;-84
2021/07/30 10:13:50;;;;;;;1.83;1.00;;;25.20;99.30;;;;;;6216413;23;20177;-82
2021/07/30 10:16:18;;;;;;;2.47;1.20;;;25.00;99.90;;;;;;6216558;23;20180;-84
2021/07/30 10:18:46;;;;;;;1.83;1.25;;;25.10;99.90;;;;;;6217140;23;20196;-83
2021/07/30 10:21:16;;;;;;;2.10;0.98;;;25.20;99.90;;;;;;6216983;23;20183;-84
2021/07/30 10:23:44;;;;;;;1.42;1.00;;;25.50;99.90;;;;;;6216779;23;20181;-77
2021/07/30 10:26:14;;;;;;;1.73;1.00;;;25.40;99.90;;;;;;6216786;23;20204;-75
2021/07/30 10:28:41;;;;;;;1.65;1.17;;;25.50;99.90;;;;;;6217020;23;20196;-84
2021/07/30 10:31:10;;;;;;;2.55;0.88;;;25.50;99.90;;;;;;6216682;23;20560;-83
2021/07/30 10:33:49;;;;;;;1.27;0.90;;;25.50;99.90;;;;;;6216959;23;20180;-83
2021/07/30 10:36:38;;;;;;;2.95;1.00;;;25.50;99.90;;;;;;6216148;23;20259;-83
2021/07/30 10:39:15;;;;;;;1.67;0.98;;;25.40;99.90;;;;;;6205381;23;20201;-75
2021/07/30 10:42:11;;;;;;;1.35;0.90;;;25.30;99.90;;;;;;6216290;23;20259;-82
2021/07/30 10:45:10;;;;;;;3.22;1.10;;;25.30;99.90;;;;;;6216773;23;20679;-80
2021/07/30 10:47:37;;;;;;;2.20;1.40;;;25.10;99.90;;;;;;6215073;23;20685;-79
2021/07/30 10:50:05;;;;;;;2.33;1.13;;;25.10;99.90;;;;;;6216140;23;20650;-84
2021/07/30 10:52:31;;;;;;;1.42;1.05;;;25.30;99.90;;;;;;6216227;23;20189;-83
2021/07/30 10:54:59;;;;;;;1.45;1.00;;;25.50;99.90;;;;;;6216922;23;20176;-81
2021/07/30 10:57:52;;;;;;;1.15;1.00;;;25.70;99.90;;;;;;6216554;23;20182;-82
2021/07/30 11:00:19;;;;;;;1.20;0.90;;;25.50;99.90;;;;;;6216388;23;20509;-84
2021/07/30 11:03:06;;;;;;;3.30;0.73;;;25.70;99.90;;;;;;6216742;23;20177;-85
2021/07/30 11:06:12;;;;;;;1.60;1.10;;;25.30;99.90;;;;;;6218019;23;20204;-86
2021/07/30 11:09:12;;;;;;;1.10;1.00;;;24.90;99.90;;;;;;6221603;23;20697;-85
2021/07/30 11:11:40;;;;;;;1.48;1.10;;;24.90;99.90;;;;;;6223340;23;20215;-80
2021/07/30 11:14:08;;;;;;;1.27;0.95;;;25.10;99.90;;;;;;6224449;23;20186;-79
2021/07/30 11:16:35;;;;;;;1.00;0.90;;;25.20;99.90;;;;;;6235806;23;20180;-82
2021/07/30 11:19:02;;;;;;;1.92;0.88;;;25.20;99.70;;;;;;6236984;23;20203;-80
2021/07/30 11:21:30;;;;;;;1.27;0.90;;;25.20;99.90;;;;;;6238210;23;20180;-81
2021/07/30 11:23:58;;;;;;;1.50;0.88;;;25.30;99.80;;;;;;6230094;23;20263;-83
2021/07/30 11:26:25;;;;;;;1.05;0.90;;;25.20;99.90;;;;;;6220127;23;20230;-80
2021/07/30 11:28:52;;;;;;;0.80;0.80;;;25.20;99.90;;;;;;6217133;23;20200;-81
2021/07/30 11:31:19;;;;;;;0.98;0.82;;;25.10;99.90;;;;;;6217841;23;20186;-83
2021/07/30 11:33:46;;;;;;;3.50;0.88;;;25.30;99.90;;;;;;6216789;23;20182;-81
2021/07/30 11:36:13;;;;;;;1.05;0.70;;;25.70;99.90;;;;;;6217739;23;20185;-78
2021/07/30 11:38:52;;;;;;;0.90;0.70;;;25.90;99.90;;;;;;6216111;23;20203;-79
2021/07/30 11:41:20;;;;;;;1.70;1.00;;;25.90;99.90;;;;;;6216483;23;20176;-81
2021/07/30 11:44:00;;;;;;;3.20;0.93;;;25.90;99.80;;;;;;6217510;23;20180;-84
2021/07/30 11:46:28;;;;;;;1.13;0.80;;;25.70;99.80;;;;;;6216628;23;20693;-81
2021/07/30 11:48:55;;;;;;;1.20;0.88;;;25.80;99.90;;;;;;6216348;23;20196;-81
2021/07/30 11:51:23;;;;;;;0.77;0.75;;;25.90;99.90;;;;;;6217050;23;20176;-82
2021/07/30 11:53:54;;;;;;;1.30;0.85;;;25.90;99.90;;;;;;6216720;23;20176;-86
2021/07/30 11:56:21;;;;;;;1.38;1.10;;;26.10;99.90;;;;;;6216349;23;20263;-85
2021/07/30 11:58:58;;;;;;;0.93;0.82;;;26.10;99.90;;;;;;6216810;23;20251;-85
2021/07/30 12:01:25;;;;;;;1.40;1.00;;;25.90;99.90;;;;;;6221154;23;20669;-80
2021/07/30 12:04:08;;;;;;;1.38;0.90;;;25.70;99.90;;;;;;6221668;23;20236;-83
2021/07/30 12:06:39;;;;;;;1.10;0.80;;;25.40;99.90;;;;;;6222065;23;20674;-84
2021/07/30 12:09:10;;;;;;;3.38;0.98;;;25.10;99.90;;;;;;6217499;23;20701;-83
2021/07/30 12:11:38;;;;;;;1.38;0.82;;;24.60;99.90;;;;;;6220840;23;20187;-84
2021/07/30 12:14:08;;;;;;;2.10;0.73;;;23.90;99.90;;;;;;6217452;23;20499;-84
2021/07/30 12:16:35;;;;;;;4.20;1.10;;;23.50;99.90;;;;;;6216570;23;20176;-84
2021/07/30 12:19:02;;;;;;;2.60;0.90;;;23.10;99.90;;;;;;6220935;23;20197;-84
2021/07/30 12:21:29;;;;;;;1.30;0.90;;;22.80;99.90;;;;;;6219353;23;20186;-85
2021/07/30 12:24:05;;;;;;;2.25;1.27;;;22.50;99.90;;;;;;6218800;23;20848;-83
2021/07/30 12:26:34;;;;;;;1.98;1.20;;;22.40;99.90;;;;;;6219116;23;20212;-81
2021/07/30 12:29:01;;;;;;;2.70;1.40;;;22.30;99.90;;;;;;6218350;23;20196;-82
2021/07/30 12:31:29;;;;;;;3.63;1.30;;;22.40;99.90;;;;;;6219546;23;20176;-83
2021/07/30 12:34:13;;;;;;;3.30;1.52;;;22.40;99.90;;;;;;6218795;23;20203;-83
2021/07/30 12:36:42;;;;;;;1.88;1.30;;;22.70;99.90;;;;;;6217780;23;20183;-75
2021/07/30 12:39:11;;;;;;;2.67;1.33;;;22.80;99.90;;;;;;6217455;23;20202;-83
2021/07/30 12:41:39;;;;;;;1.63;1.30;;;22.90;99.90;;;;;;6216636;23;20754;-81
2021/07/30 12:44:10;;;;;;;3.85;1.17;;;22.80;99.90;;;;;;6216900;23;20181;-78
2021/07/30 12:46:39;;;;;;;2.55;1.20;;;22.70;99.90;;;;;;6215874;23;20207;-81
2021/07/30 12:49:07;;;;;;;2.10;1.27;;;22.60;99.90;;;;;;6216376;23;20196;-83
2021/07/30 12:51:34;;;;;;;5.50;1.45;;;22.70;99.90;;;;;;6215651;23;20591;-82
2021/07/30 12:54:04;;;;;;;2.58;1.50;;;22.50;99.90;;;;;;6215577;23;20180;-76